createdAt,value
2017-11-08T00:01:06.063Z,78.50
2017-11-08T00:03:32.271Z,78.50
2017-11-08T00:05:58.549Z,78.60
2017-11-08T00:08:24.890Z,78.50
2017-11-08T00:10:51.150Z,78.80
2017-11-08T00:13:17.325Z,78.80
2017-11-08T00:15:44.872Z,78.60
2017-11-08T00:18:12.043Z,78.70
2017-11-08T00:20:39.157Z,78.80
2017-11-08T00:23:08.154Z,78.80
2017-11-08T00:25:34.419Z,78.90
2017-11-08T00:37:40.669Z,78.80
2017-11-08T00:40:06.938Z,78.80
2017-11-08T00:42:33.149Z,78.80
2017-11-08T00:44:59.350Z,78.90
2017-11-08T00:47:27.167Z,79.30
2017-11-08T00:49:53.406Z,78.60
2017-11-08T00:52:19.858Z,79.00
2017-11-08T00:54:46.111Z,78.70
2017-11-08T00:57:16.211Z,78.90
2017-11-08T00:59:42.349Z,79.10
2017-11-08T01:02:08.548Z,78.70
2017-11-08T01:04:35.541Z,78.80
2017-11-08T01:07:02.811Z,78.80
2017-11-08T01:09:29.046Z,78.80
2017-11-08T01:11:55.211Z,78.90
2017-11-08T01:14:21.403Z,79.00
2017-11-08T01:16:47.689Z,79.00
2017-11-08T01:19:13.947Z,79.00
2017-11-08T01:21:40.113Z,78.70
2017-11-08T01:24:06.283Z,78.80
2017-11-08T01:26:32.501Z,78.80
2017-11-08T01:28:59.043Z,78.80
2017-11-08T01:31:25.235Z,78.80
2017-11-08T01:33:51.814Z,78.70
2017-11-08T01:36:20.880Z,78.80
2017-11-08T01:38:47.127Z,78.70
2017-11-08T01:41:20.223Z,78.70
2017-11-08T01:43:47.931Z,78.70
2017-11-08T01:46:16.095Z,78.40
2017-11-08T01:48:42.283Z,79.00
2017-11-08T01:51:13.372Z,78.80
2017-11-08T01:53:39.578Z,78.80
2017-11-08T01:56:05.789Z,78.70
2017-11-08T01:58:32.356Z,78.30
2017-11-08T02:00:58.532Z,78.70
2017-11-08T02:03:25.149Z,78.90
2017-11-08T02:05:51.453Z,78.80
2017-11-08T02:08:18.563Z,79.00
2017-11-08T02:10:44.802Z,78.80
2017-11-08T02:13:11.008Z,78.80
2017-11-08T02:15:37.931Z,78.60
2017-11-08T02:18:06.031Z,78.60
2017-11-08T02:20:32.248Z,78.80
2017-11-08T02:22:58.457Z,78.50
2017-11-08T02:25:24.673Z,79.00
2017-11-08T02:27:50.942Z,78.80
2017-11-08T02:30:17.194Z,78.60
2017-11-08T02:32:43.404Z,78.60
2017-11-08T02:35:09.635Z,78.50
2017-11-08T02:37:36.606Z,79.00
2017-11-08T02:40:03.584Z,78.40
2017-11-08T02:42:29.754Z,78.70
2017-11-08T02:44:56.315Z,78.60
2017-11-08T02:47:22.536Z,78.80
2017-11-08T02:49:48.727Z,78.60
2017-11-08T02:52:15.646Z,79.40
2017-11-08T02:54:41.843Z,78.80
2017-11-08T02:57:08.041Z,78.60
2017-11-08T02:59:34.995Z,79.30
2017-11-08T03:02:01.190Z,78.70
2017-11-08T03:04:27.612Z,78.90
2017-11-08T03:06:53.804Z,78.80
2017-11-08T03:09:19.982Z,78.90
2017-11-08T03:11:46.179Z,78.70
2017-11-08T03:14:12.348Z,78.80
2017-11-08T03:16:39.271Z,78.80
2017-11-08T03:19:06.068Z,79.10
2017-11-08T03:21:32.612Z,79.00
2017-11-08T03:23:58.790Z,79.00
2017-11-08T03:26:26.526Z,78.90
2017-11-08T03:28:52.717Z,79.10
2017-11-08T03:31:18.895Z,79.10
2017-11-08T03:33:45.095Z,79.10
2017-11-08T03:36:11.286Z,78.90
2017-11-08T03:38:37.529Z,79.00
2017-11-08T03:41:03.790Z,79.00
2017-11-08T03:43:30.030Z,78.90
2017-11-08T03:45:56.251Z,78.90
2017-11-08T03:48:22.471Z,78.90
2017-11-08T03:50:48.674Z,78.90
2017-11-08T03:53:15.254Z,78.80
2017-11-08T03:55:42.162Z,78.80
2017-11-08T03:58:09.302Z,78.80
2017-11-08T04:00:35.532Z,78.80
2017-11-08T04:03:01.750Z,78.50
2017-11-08T04:05:27.930Z,77.30
2017-11-08T04:07:54.597Z,78.70
2017-11-08T04:10:21.211Z,78.80
2017-11-08T04:12:47.471Z,78.90
2017-11-08T04:15:14.582Z,79.00
2017-11-08T04:17:40.869Z,79.20
2017-11-08T04:20:07.570Z,79.50
2017-11-08T04:22:33.747Z,79.90
2017-11-08T04:24:59.941Z,80.50
2017-11-08T04:27:26.161Z,80.60
2017-11-08T04:29:52.808Z,80.50
2017-11-08T04:32:20.156Z,80.50
2017-11-08T04:34:47.168Z,80.50
2017-11-08T04:37:13.363Z,80.60
2017-11-08T04:39:39.682Z,80.50
2017-11-08T04:42:05.898Z,81.00
2017-11-08T04:44:33.672Z,81.70
2017-11-08T04:46:59.967Z,81.30
2017-11-08T04:49:26.227Z,81.70
2017-11-08T04:51:52.485Z,81.30
2017-11-08T04:54:18.641Z,81.10
2017-11-08T04:56:44.859Z,81.10
2017-11-08T04:59:11.032Z,81.50
2017-11-08T05:01:37.271Z,81.40
2017-11-08T05:04:03.440Z,81.60
2017-11-08T05:06:30.389Z,81.90
2017-11-08T05:08:56.614Z,82.10
2017-11-08T05:11:23.050Z,82.30
2017-11-08T05:13:49.620Z,82.60
2017-11-08T05:16:15.838Z,83.20
2017-11-08T05:18:42.076Z,83.20
2017-11-08T05:21:08.288Z,83.20
2017-11-08T05:23:34.495Z,83.30
2017-11-08T05:26:00.743Z,83.60
2017-11-08T05:28:27.761Z,83.80
2017-11-08T05:30:54.151Z,83.40
2017-11-08T05:33:20.741Z,83.30
2017-11-08T05:35:46.955Z,83.20
2017-11-08T05:38:13.864Z,83.10
2017-11-08T05:40:40.066Z,83.30
2017-11-08T05:43:07.081Z,83.40
2017-11-08T05:45:33.662Z,83.40
2017-11-08T05:48:02.073Z,83.40
2017-11-08T05:50:28.253Z,83.60
2017-11-08T05:52:55.417Z,83.80
2017-11-08T05:55:21.625Z,83.80
2017-11-08T05:57:47.843Z,83.70
2017-11-08T06:00:14.057Z,83.80
2017-11-08T06:02:40.283Z,83.70
2017-11-08T06:05:08.152Z,84.30
2017-11-08T06:07:34.352Z,83.80
2017-11-08T06:10:02.094Z,83.70
2017-11-08T06:12:28.307Z,83.70
2017-11-08T06:14:54.863Z,83.70
2017-11-08T06:17:21.050Z,83.70
2017-11-08T06:19:47.267Z,83.80
2017-11-08T06:22:13.455Z,84.10
2017-11-08T06:24:39.768Z,84.00
2017-11-08T06:27:06.467Z,84.10
2017-11-08T06:29:32.772Z,83.80
2017-11-08T06:31:59.562Z,83.60
2017-11-08T06:34:25.827Z,83.70
2017-11-08T06:36:52.054Z,83.80
2017-11-08T06:39:18.594Z,84.00
2017-11-08T06:41:46.373Z,84.70
2017-11-08T06:44:12.566Z,84.00
2017-11-08T06:46:38.752Z,84.30
2017-11-08T06:49:04.971Z,84.10
2017-11-08T06:51:31.401Z,84.00
2017-11-08T06:53:57.591Z,84.30
2017-11-08T06:56:23.784Z,84.30
2017-11-08T06:58:50.020Z,84.30
2017-11-08T07:01:16.228Z,84.30
2017-11-08T07:03:43.282Z,84.60
2017-11-08T07:06:12.270Z,84.30
2017-11-08T07:08:38.429Z,84.10
2017-11-08T07:11:06.314Z,84.30
2017-11-08T07:13:33.517Z,84.30
2017-11-08T07:15:59.693Z,84.40
2017-11-08T07:18:25.900Z,84.50
2017-11-08T07:20:52.672Z,84.80
2017-11-08T07:23:19.613Z,85.10
2017-11-08T07:25:45.815Z,84.30
2017-11-08T07:28:13.592Z,84.30
2017-11-08T07:30:40.794Z,84.40
2017-11-08T07:33:07.006Z,84.30
2017-11-08T07:45:13.280Z,85.10
2017-11-08T07:47:39.484Z,85.50
2017-11-08T07:50:05.630Z,85.40
2017-11-08T08:02:11.895Z,85.60
2017-11-08T08:14:18.140Z,85.10
2017-11-08T08:16:44.323Z,84.90
2017-11-08T08:19:11.372Z,85.00
2017-11-08T08:21:37.585Z,84.80
2017-11-08T08:24:03.789Z,85.00
2017-11-08T08:26:30.057Z,85.20
2017-11-08T08:38:36.722Z,85.20
2017-11-08T08:41:03.359Z,85.00
2017-11-08T08:43:30.312Z,84.90
2017-11-08T08:45:57.619Z,85.00
2017-11-08T08:48:24.176Z,84.60
2017-11-08T08:50:51.100Z,85.20
2017-11-08T08:53:17.313Z,84.80
2017-11-08T08:55:43.595Z,84.90
2017-11-08T08:58:10.139Z,84.90
2017-11-08T09:00:37.112Z,85.00
2017-11-08T09:03:03.371Z,84.60
2017-11-08T09:05:29.608Z,84.50
2017-11-08T09:07:55.818Z,84.60
2017-11-08T09:10:22.032Z,84.50
2017-11-08T09:12:48.234Z,84.60
2017-11-08T09:15:14.469Z,84.60
2017-11-08T09:17:40.647Z,84.50
2017-11-08T09:20:06.915Z,84.50
2017-11-08T09:22:33.156Z,84.50
2017-11-08T09:24:59.321Z,84.50
2017-11-08T09:27:27.652Z,84.40
2017-11-08T09:29:54.833Z,84.40
2017-11-08T09:32:22.883Z,84.60
2017-11-08T09:34:49.168Z,84.50
2017-11-08T09:37:16.599Z,84.50
2017-11-08T09:39:42.826Z,84.60
2017-11-08T09:42:09.059Z,84.60
2017-11-08T09:44:36.122Z,84.60
2017-11-08T09:47:03.275Z,84.60
2017-11-08T09:49:29.961Z,85.10
2017-11-08T09:51:56.137Z,85.10
2017-11-08T09:54:22.322Z,85.50
2017-11-08T09:56:48.533Z,85.80
2017-11-08T09:59:16.550Z,86.10
2017-11-08T10:01:42.745Z,86.30
2017-11-08T10:04:08.986Z,86.60
2017-11-08T10:06:35.436Z,86.30
2017-11-08T10:09:01.989Z,86.50
2017-11-08T10:11:28.201Z,86.60
2017-11-08T10:13:54.307Z,86.30
2017-11-08T10:16:20.579Z,86.70
2017-11-08T10:18:46.818Z,86.60
2017-11-08T10:21:13.050Z,86.30
2017-11-08T10:23:40.167Z,86.10
2017-11-08T10:26:06.880Z,86.40
2017-11-08T10:28:33.519Z,86.40
2017-11-08T10:31:00.104Z,86.00
2017-11-08T10:33:26.319Z,86.00
2017-11-08T10:35:52.566Z,86.00
2017-11-08T10:38:18.722Z,85.90
2017-11-08T10:40:44.993Z,85.60
2017-11-08T10:43:11.202Z,85.80
2017-11-08T10:55:18.127Z,84.90
2017-11-08T10:57:45.048Z,85.50
2017-11-08T11:00:17.208Z,84.90
2017-11-08T11:02:44.326Z,84.90
2017-11-08T11:05:10.651Z,84.90
2017-11-08T11:07:37.030Z,84.90
2017-11-08T11:10:05.808Z,85.50
2017-11-08T11:12:32.071Z,84.90
2017-11-08T11:14:58.321Z,85.00
2017-11-08T11:17:24.555Z,84.50
2017-11-08T11:19:53.789Z,84.80
2017-11-08T11:22:20.048Z,84.80
2017-11-08T11:24:46.297Z,85.10
2017-11-08T11:27:12.602Z,85.00
2017-11-08T11:29:38.820Z,84.80
2017-11-08T11:32:05.722Z,84.70
2017-11-08T11:34:32.312Z,84.70
2017-11-08T11:36:58.920Z,85.00
2017-11-08T11:39:25.107Z,84.70
2017-11-08T11:41:52.096Z,84.20
2017-11-08T11:44:19.031Z,84.10
2017-11-08T11:46:45.671Z,84.40
2017-11-08T11:49:12.559Z,84.20
2017-11-08T11:51:39.159Z,84.10
2017-11-08T11:54:05.406Z,83.80
2017-11-08T11:56:31.976Z,83.70
2017-11-08T11:58:59.490Z,83.60
2017-11-08T12:01:27.498Z,83.80
2017-11-08T12:03:53.715Z,83.80
2017-11-08T12:06:19.964Z,83.80
2017-11-08T12:08:48.807Z,84.90
2017-11-08T12:11:15.088Z,84.80
2017-11-08T12:13:41.320Z,84.80
2017-11-08T12:16:08.344Z,84.90
2017-11-08T12:18:35.278Z,85.00
2017-11-08T12:21:01.494Z,85.00
2017-11-08T12:23:27.681Z,85.50
2017-11-08T12:25:53.933Z,85.10
2017-11-08T12:28:23.617Z,85.30
2017-11-08T12:30:50.187Z,85.40
2017-11-08T12:33:17.935Z,85.10
2017-11-08T12:35:47.264Z,84.70
2017-11-08T12:38:13.493Z,84.50
2017-11-08T12:40:41.146Z,84.30
2017-11-08T12:43:07.398Z,84.50
2017-11-08T12:45:34.538Z,85.60
2017-11-08T12:48:01.625Z,86.10
2017-11-08T12:50:27.828Z,84.10
2017-11-08T12:52:54.079Z,84.40
2017-11-08T12:55:21.106Z,82.90
2017-11-08T12:57:47.300Z,81.90
2017-11-08T13:00:13.585Z,82.50
2017-11-08T13:02:40.575Z,83.00
2017-11-08T13:05:07.492Z,82.80
2017-11-08T13:07:34.723Z,85.40
2017-11-08T13:10:01.014Z,83.10
2017-11-08T13:12:27.251Z,83.50
2017-11-08T13:14:53.932Z,83.50
2017-11-08T13:17:20.904Z,83.60
2017-11-08T13:19:47.193Z,83.70
2017-11-08T13:22:14.171Z,84.60
2017-11-08T13:24:40.508Z,84.00
2017-11-08T13:27:06.915Z,83.90
2017-11-08T13:29:33.234Z,84.40
2017-11-08T13:31:59.544Z,84.30
2017-11-08T13:34:25.760Z,83.60
2017-11-08T13:36:52.768Z,82.90
2017-11-08T13:39:18.966Z,83.00
2017-11-08T13:41:45.177Z,83.10
2017-11-08T13:44:11.447Z,83.10
2017-11-08T13:46:37.692Z,83.90
2017-11-08T13:49:03.990Z,85.10
2017-11-08T13:51:30.573Z,84.30
2017-11-08T13:53:56.850Z,84.50
2017-11-08T13:56:23.058Z,84.20
2017-11-08T13:58:49.317Z,83.90
2017-11-08T14:01:15.579Z,83.10
2017-11-08T14:03:41.810Z,82.90
2017-11-08T14:06:08.044Z,83.50
2017-11-08T14:08:34.629Z,84.00
2017-11-08T14:11:01.971Z,85.20
2017-11-08T14:13:28.168Z,85.80
2017-11-08T14:15:54.386Z,85.80
2017-11-08T14:18:21.215Z,86.30
2017-11-08T14:20:48.432Z,85.80
2017-11-08T14:23:14.956Z,86.00
2017-11-08T14:25:41.135Z,86.30
2017-11-08T14:28:07.411Z,86.50
2017-11-08T14:30:33.799Z,86.60
2017-11-08T14:33:00.030Z,86.80
2017-11-08T14:35:27.780Z,86.60
2017-11-08T14:37:54.615Z,86.40
2017-11-08T14:40:20.830Z,85.60
2017-11-08T14:42:50.658Z,85.80
2017-11-08T14:45:16.855Z,84.90
2017-11-08T14:47:43.047Z,85.70
2017-11-08T14:50:09.249Z,86.00
2017-11-08T14:52:35.835Z,86.80
2017-11-08T14:55:06.380Z,86.00
2017-11-08T14:57:32.688Z,86.90
2017-11-08T14:59:59.753Z,88.00
2017-11-08T15:02:26.410Z,89.00
2017-11-08T15:04:52.599Z,89.10
2017-11-08T15:07:18.821Z,89.00
2017-11-08T15:09:45.052Z,88.90
2017-11-08T15:12:11.244Z,88.90
2017-11-08T15:14:41.250Z,88.80
2017-11-08T15:17:07.514Z,89.30
2017-11-08T15:19:33.746Z,89.10
2017-11-08T15:22:00.803Z,89.20
2017-11-08T15:24:28.971Z,89.50
2017-11-08T15:26:55.201Z,89.70
2017-11-08T15:29:22.436Z,89.10
2017-11-08T15:31:49.552Z,89.70
2017-11-08T15:34:20.591Z,90.00
2017-11-08T15:36:46.894Z,90.00
2017-11-08T15:39:13.879Z,90.30
2017-11-08T15:41:40.092Z,90.60
2017-11-08T15:44:06.672Z,90.30
2017-11-08T15:46:40.406Z,90.20
2017-11-08T15:49:08.645Z,90.30
2017-11-08T15:51:35.701Z,90.40
2017-11-08T15:54:01.977Z,90.40
2017-11-08T15:56:28.904Z,90.60
2017-11-08T15:58:56.079Z,90.50
2017-11-08T16:01:23.273Z,90.30
2017-11-08T16:03:50.397Z,90.20
2017-11-08T16:06:16.741Z,90.30
2017-11-08T16:08:45.412Z,90.20
2017-11-08T16:11:12.475Z,90.10
2017-11-08T16:13:39.073Z,90.20
2017-11-08T16:16:05.246Z,90.00
2017-11-08T16:18:31.653Z,90.00
2017-11-08T16:20:58.303Z,90.30
2017-11-08T16:23:27.540Z,88.50
2017-11-08T16:25:56.475Z,90.30
2017-11-08T16:28:23.629Z,90.60
2017-11-08T16:30:50.048Z,90.40
2017-11-08T16:33:16.270Z,90.20
2017-11-08T16:35:42.492Z,90.00
2017-11-08T16:38:09.369Z,90.20
2017-11-08T16:40:37.929Z,90.50
2017-11-08T16:43:04.122Z,90.80
2017-11-08T16:45:30.424Z,90.80
2017-11-08T16:47:56.668Z,90.60
2017-11-08T16:50:23.646Z,90.60
2017-11-08T16:52:49.884Z,90.60
2017-11-08T16:55:16.169Z,90.90
2017-11-08T16:57:42.495Z,90.90
2017-11-08T17:00:08.879Z,90.80
2017-11-08T17:02:35.565Z,90.50
2017-11-08T17:05:01.874Z,90.80
2017-11-08T17:07:28.091Z,90.80
2017-11-08T17:09:55.445Z,91.00
2017-11-08T17:12:23.087Z,90.80
2017-11-08T17:14:51.149Z,90.60
2017-11-08T17:17:17.382Z,90.30
2017-11-08T17:19:43.627Z,90.50
2017-11-08T17:22:10.765Z,90.50
2017-11-08T17:24:38.597Z,90.70
2017-11-08T17:27:04.811Z,90.70
2017-11-08T17:29:31.040Z,90.50
2017-11-08T17:31:58.046Z,90.40
2017-11-08T17:34:24.347Z,90.70
2017-11-08T17:36:50.621Z,90.80
2017-11-08T17:39:17.875Z,90.80
2017-11-08T17:41:44.953Z,90.70
2017-11-08T17:44:11.206Z,90.60
2017-11-08T17:46:37.959Z,90.50
2017-11-08T17:49:05.836Z,90.60
2017-11-08T17:51:33.088Z,90.70
2017-11-08T17:53:59.406Z,91.00
2017-11-08T17:56:25.650Z,91.00
2017-11-08T18:08:32.083Z,90.20
2017-11-08T18:10:58.440Z,90.10
2017-11-08T18:13:25.647Z,90.00
2017-11-08T18:15:53.002Z,90.30
2017-11-08T18:27:59.271Z,90.00
2017-11-08T18:30:25.495Z,90.10
2017-11-08T18:32:51.686Z,89.80
2017-11-08T18:35:18.777Z,89.70
2017-11-08T18:37:45.774Z,90.10
2017-11-08T18:40:12.818Z,89.50
2017-11-08T18:42:39.278Z,89.50
2017-11-08T18:45:06.343Z,89.80
2017-11-08T18:47:32.570Z,90.00
2017-11-08T18:49:59.582Z,90.60
2017-11-08T18:52:25.804Z,88.90
2017-11-08T18:54:52.026Z,88.70
2017-11-08T18:57:18.365Z,88.80
2017-11-08T18:59:44.832Z,89.10
2017-11-08T19:04:39.383Z,89.00
2017-11-08T19:07:07.030Z,89.00
2017-11-08T19:09:33.263Z,89.00
2017-11-08T19:12:00.237Z,89.00
2017-11-08T19:14:27.502Z,89.00
2017-11-08T19:16:53.786Z,89.00
2017-11-08T19:19:20.142Z,89.00
2017-11-08T19:21:46.764Z,89.30
2017-11-08T19:24:13.020Z,89.50
2017-11-08T19:26:39.409Z,89.40
2017-11-08T19:29:05.760Z,89.70
2017-11-08T19:44:22.283Z,90.10
2017-11-08T19:46:48.869Z,90.00
2017-11-08T19:49:16.233Z,90.00
2017-11-08T19:51:48.899Z,89.90
2017-11-08T19:54:17.398Z,89.80
2017-11-08T19:56:45.738Z,89.80
2017-11-08T19:59:12.155Z,89.80
2017-11-08T20:01:39.917Z,89.60
2017-11-08T20:04:07.936Z,89.60
2017-11-08T20:16:15.101Z,90.10
2017-11-08T20:18:41.359Z,90.10
2017-11-08T20:21:08.353Z,90.10
2017-11-08T20:23:34.580Z,90.10
2017-11-08T20:26:01.089Z,90.00
2017-11-08T20:28:27.308Z,89.30
2017-11-08T20:30:54.924Z,89.20
2017-11-08T20:33:23.688Z,89.00
2017-11-08T20:35:50.047Z,89.10
2017-11-08T20:38:19.053Z,89.60
2017-11-08T20:40:46.234Z,89.00
2017-11-08T20:43:13.397Z,89.50
2017-11-08T20:55:20.591Z,89.50
2017-11-08T20:57:47.052Z,89.80
2017-11-08T21:00:15.824Z,89.90
2017-11-08T21:02:42.550Z,89.70
2017-11-08T21:05:09.962Z,90.00
2017-11-08T21:07:36.967Z,89.80
2017-11-08T21:10:03.243Z,89.50
2017-11-08T21:12:29.475Z,89.70
2017-11-08T21:14:55.689Z,89.30
2017-11-08T21:17:21.893Z,89.20
2017-11-08T21:19:49.118Z,89.60
2017-11-08T21:22:17.050Z,89.20
2017-11-08T21:24:44.130Z,89.50
2017-11-08T21:27:11.256Z,89.00
2017-11-08T21:29:37.630Z,89.00
2017-11-08T21:32:05.481Z,89.30
2017-11-08T21:34:32.188Z,89.20
2017-11-08T21:46:38.667Z,89.20
2017-11-08T21:49:06.177Z,89.20
2017-11-08T21:51:33.609Z,89.70
2017-11-08T21:54:00.376Z,89.20
2017-11-08T21:56:28.364Z,89.50
2017-11-08T21:58:56.736Z,89.20
2017-11-08T22:01:23.724Z,88.90
2017-11-08T22:03:53.162Z,89.60
2017-11-08T22:06:19.542Z,89.60
2017-11-08T22:08:46.907Z,89.60
2017-11-08T22:11:13.500Z,89.50
2017-11-08T22:13:41.143Z,89.60
2017-11-08T22:16:07.449Z,89.70
2017-11-08T22:18:33.648Z,89.50
2017-11-08T22:21:00.795Z,89.80
2017-11-08T22:23:27.579Z,89.70
2017-11-08T22:25:54.856Z,89.20
2017-11-08T22:28:25.193Z,89.20
2017-11-08T22:30:53.493Z,89.50
2017-11-08T22:33:21.008Z,89.50
2017-11-08T22:35:47.323Z,88.80
2017-11-08T22:38:15.312Z,89.40
2017-11-08T22:40:42.943Z,88.80
2017-11-08T22:43:09.171Z,88.80
2017-11-08T22:45:35.420Z,88.80
2017-11-08T22:48:04.629Z,88.80
2017-11-08T22:50:32.814Z,89.00
2017-11-08T22:52:59.619Z,89.00
2017-11-08T22:55:28.437Z,89.00
2017-11-08T22:57:58.549Z,88.80
2017-11-08T23:00:28.474Z,89.00
2017-11-08T23:02:56.771Z,89.00
2017-11-08T23:05:25.902Z,88.90
2017-11-08T23:07:53.976Z,89.60
2017-11-08T23:10:24.114Z,88.80
2017-11-08T23:12:50.776Z,89.00
2017-11-08T23:15:18.137Z,89.00
2017-11-08T23:17:44.774Z,89.00
2017-11-08T23:20:11.075Z,88.80
2017-11-08T23:22:37.941Z,88.80
2017-11-08T23:25:04.948Z,89.00
2017-11-08T23:27:31.964Z,89.00
2017-11-08T23:30:01.477Z,89.00
2017-11-08T23:32:29.012Z,89.00
2017-11-08T23:34:56.151Z,89.00
2017-11-08T23:37:23.986Z,88.70
2017-11-08T23:39:51.752Z,89.00
2017-11-08T23:42:18.937Z,89.00
2017-11-08T23:44:46.354Z,89.00
2017-11-08T23:47:12.773Z,88.80
2017-11-08T23:49:39.703Z,89.00
2017-11-08T23:52:06.695Z,88.80
2017-11-08T23:54:34.063Z,88.80
2017-11-08T23:57:01.617Z,89.40
2017-11-08T23:59:28.721Z,88.80
